Time;durP1;ratioP1;P1;durP2;ratioP2;P2;SDS_P1;SDS_P2;PMS_P1;PMS_P2;Temp;Humidity;BMP_temperature;BMP_pressure;BME280_temperature;BME280_humidity;BME280_pressure;Samples;Min_cycle;Max_cycle;Signal;HPM_P1;HPM_P2
2022/01/19 09:56:10;;;;;;;19.52;7.63;;;;;;;1.98;66.24;100950.13;6200164;23;20060;-89
2022/01/19 10:05:58;;;;;;;15.05;6.57;;;;;;;2.75;64.35;100940.75;6219650;22;20035;-92
2022/01/19 10:08:40;;;;;;;16.27;6.47;;;;;;;2.65;63.61;100921.75;6145390;23;20348;-93
2022/01/19 10:18:28;;;;;;;16.73;6.97;;;;;;;3.45;62.38;100955.16;6225774;22;20127;-92
2022/01/19 10:21:32;;;;;;;13.70;5.68;;;;;;;3.41;61.41;100933.94;6186081;23;20449;-93
2022/01/19 10:33:20;;;;;;;12.10;5.63;;;;;;;3.87;59.75;100917.63;6235468;22;20025;-91
2022/01/19 10:35:51;;;;;;;14.00;5.50;;;;;;;4.14;59.02;100909.56;6218728;23;20016;-90
2022/01/19 11:36:18;;;;;;;15.27;6.80;;;;;;;4.93;57.12;100798.38;6223599;22;20098;-94
2022/01/19 12:05:44;;;;;;;16.50;6.97;;;;;;;6.01;55.49;100727.31;5941276;22;21227;-91
2022/01/19 12:09:22;;;;;;;16.83;7.10;;;;;;;6.08;55.22;100714.91;6214360;23;20024;-89
2022/01/19 12:15:54;;;;;;;14.90;5.97;;;;;;;5.62;55.21;100701.44;6160635;23;20436;-90
2022/01/19 12:18:49;;;;;;;15.05;5.57;;;;;;;5.37;55.33;100698.84;6185425;23;20017;-90
2022/01/19 12:21:55;;;;;;;15.73;6.05;;;;;;;4.69;55.59;100617.88;6135727;23;20021;-90
2022/01/19 12:25:13;;;;;;;19.30;6.68;;;;;;;4.80;56.38;100656.22;5874510;22;20047;-88
2022/01/19 12:28:00;;;;;;;21.75;7.50;;;;;;;5.38;56.31;100666.00;5893160;22;21871;-85
2022/01/19 12:30:40;;;;;;;16.85;7.10;;;;;;;5.61;56.16;100636.44;6186517;23;20025;-87
2022/01/19 12:33:32;;;;;;;10.95;5.25;;;;;;;6.20;56.02;100648.56;6187315;23;20025;-86
2022/01/19 12:36:38;;;;;;;17.58;7.35;;;;;;;5.60;55.18;100535.06;6187111;23;20104;-88
2022/01/19 12:39:33;;;;;;;15.40;6.15;;;;;;;6.42;54.16;100648.44;6187032;23;20063;-88
2022/01/19 12:55:15;;;;;;;10.55;5.20;;;;;;;7.77;50.84;100611.69;6116280;23;20054;-84
2022/01/19 12:57:47;;;;;;;14.00;5.57;;;;;;;6.97;51.43;100538.44;6217500;23;20450;-84
2022/01/19 13:00:37;;;;;;;17.55;6.35;;;;;;;6.50;51.95;100487.22;6165642;23;20021;-84
2022/01/19 13:03:15;;;;;;;13.48;6.70;;;;;;;6.43;52.14;100525.91;6217090;23;20025;-85
2022/01/19 13:06:03;;;;;;;16.40;6.35;;;;;;;6.81;52.14;100597.19;6191251;23;20424;-86
2022/01/19 13:08:41;;;;;;;14.52;5.80;;;;;;;6.55;52.79;100587.13;6214678;23;20047;-86
2022/01/19 13:11:33;;;;;;;13.27;5.60;;;;;;;5.48;53.44;100420.75;6217326;23;20031;-85
2022/01/19 13:14:06;;;;;;;10.32;5.03;;;;;;;6.00;53.98;100554.16;6190394;23;20526;-86
2022/01/19 13:17:06;;;;;;;17.75;5.65;;;;;;;5.63;55.15;100532.66;6217415;23;20087;-86
2022/01/19 13:20:09;;;;;;;13.63;5.30;;;;;;;5.39;54.70;100485.47;6215254;23;20020;-86
2022/01/19 13:22:49;;;;;;;13.02;5.53;;;;;;;5.68;55.41;100564.03;6191378;23;20454;-86
2022/01/19 13:25:22;;;;;;;22.92;8.43;;;;;;;5.33;55.43;100550.19;6217080;23;20340;-86
2022/01/19 13:27:56;;;;;;;25.98;9.68;;;;;;;5.26;56.40;100574.44;6215955;23;20035;-85
2022/01/19 13:30:37;;;;;;;17.27;6.57;;;;;;;4.92;56.96;100550.44;5945526;23;20056;-86
2022/01/19 13:33:51;;;;;;;14.88;6.60;;;;;;;4.69;57.05;100567.31;6195094;23;20020;-90
2022/01/19 13:36:27;;;;;;;21.42;8.40;;;;;;;4.33;57.60;100492.66;6126740;23;20070;-91
2022/01/19 13:39:24;;;;;;;13.07;6.90;;;;;;;4.58;58.02;100563.53;6220800;23;20042;-90
2022/01/19 13:42:04;;;;;;;14.02;6.40;;;;;;;3.95;58.59;100471.88;6249880;23;20043;-91
2022/01/19 13:45:08;;;;;;;13.95;6.22;;;;;;;4.46;58.57;100550.44;6224989;23;20016;-93
2022/01/19 13:48:05;;;;;;;18.95;6.32;;;;;;;4.27;59.58;100553.06;6108836;23;20026;-90
2022/01/19 13:50:37;;;;;;;13.23;5.78;;;;;;;3.59;60.04;100449.41;6148709;23;20009;-84
2022/01/19 13:53:14;;;;;;;12.30;5.47;;;;;;;3.66;59.61;100454.75;6146372;23;20018;-87
2022/01/19 13:55:44;;;;;;;16.02;6.45;;;;;;;3.93;60.37;100549.25;6125441;23;20042;-90
2022/01/19 13:58:20;;;;;;;19.48;6.57;;;;;;;3.59;60.93;100484.72;6149410;23;20053;-87
2022/01/19 14:01:28;;;;;;;12.63;6.00;;;;;;;3.87;61.09;100549.00;6100987;23;20029;-85
2022/01/19 14:04:16;;;;;;;15.70;5.80;;;;;;;3.86;61.11;100544.72;6038564;23;20027;-88
2022/01/19 14:06:49;;;;;;;13.05;5.32;;;;;;;3.80;61.18;100544.50;6038515;23;20050;-91
2022/01/19 14:10:01;;;;;;;12.13;5.70;;;;;;;3.71;61.08;100545.78;6038132;23;20019;-88
2022/01/19 14:13:52;;;;;;;13.35;5.63;;;;;;;2.90;62.32;100413.00;5909197;24;20025;-88
2022/01/19 14:17:03;;;;;;;17.38;6.13;;;;;;;3.36;62.26;100541.81;5926709;24;20021;-88
2022/01/19 14:20:14;;;;;;;14.52;4.95;;;;;;;3.08;62.75;100501.97;5926457;24;20029;-84
2022/01/19 14:23:41;;;;;;;11.32;5.80;;;;;;;3.13;63.61;100537.47;5926877;24;20032;-88
2022/01/19 14:30:13;;;;;;;10.50;5.10;;;;;;;2.64;63.97;100530.31;5907539;24;20021;-87
2022/01/19 14:33:16;;;;;;;15.32;6.32;;;;;;;2.45;64.76;100529.41;5824397;24;20029;-89
2022/01/19 14:35:51;;;;;;;12.95;6.45;;;;;;;1.93;65.66;100425.50;5926506;24;20025;-87
2022/01/19 14:38:26;;;;;;;14.88;6.38;;;;;;;2.53;66.03;100520.56;5903409;24;20035;-87
2022/01/19 14:41:04;;;;;;;14.50;5.85;;;;;;;2.49;65.82;100518.69;5940232;24;20149;-86
2022/01/19 14:43:42;;;;;;;13.80;4.85;;;;;;;1.84;66.16;100431.00;5959213;24;20020;-87
2022/01/19 14:46:25;;;;;;;14.45;6.05;;;;;;;2.32;65.80;100507.00;5981617;24;20031;-86
2022/01/19 14:49:46;;;;;;;15.88;6.28;;;;;;;1.69;67.19;100424.38;6014442;23;20022;-85
2022/01/19 14:52:23;;;;;;;14.98;5.70;;;;;;;1.88;67.31;100468.09;6009797;23;20029;-91
2022/01/19 14:55:05;;;;;;;14.95;6.20;;;;;;;2.07;68.06;100507.53;6123336;23;20038;-90
2022/01/19 14:57:37;;;;;;;10.10;5.95;;;;;;;1.79;68.10;100456.72;6101173;23;20032;-90
2022/01/19 15:00:20;;;;;;;14.77;5.40;;;;;;;2.05;68.33;100499.06;6100642;23;20021;-88
2022/01/19 15:03:09;;;;;;;16.92;5.57;;;;;;;1.59;68.15;100452.41;6128179;23;20024;-89
2022/01/19 15:05:42;;;;;;;12.47;5.90;;;;;;;1.98;69.01;100489.50;6125953;23;20056;-89
2022/01/19 15:08:23;;;;;;;15.27;6.20;;;;;;;1.82;68.17;100461.91;6129962;23;20022;-90
2022/01/19 15:11:35;;;;;;;13.90;6.15;;;;;;;1.23;68.77;100389.53;6131045;23;20018;-91
2022/01/19 15:14:06;;;;;;;9.38;4.95;;;;;;;1.61;69.34;100438.28;6156167;23;20067;-88
2022/01/19 15:17:15;;;;;;;16.95;6.20;;;;;;;1.74;69.36;100480.81;6078029;23;20051;-86
2022/01/19 15:19:45;;;;;;;12.77;5.45;;;;;;;1.46;69.73;100478.66;6160089;23;20056;-90
2022/01/19 15:22:59;;;;;;;13.23;5.60;;;;;;;1.41;69.83;100471.66;6189257;23;20013;-89
2022/01/19 15:26:20;;;;;;;15.18;5.40;;;;;;;0.51;70.39;100328.19;6188130;23;20452;-92
2022/01/19 15:28:53;;;;;;;16.13;6.65;;;;;;;1.01;70.33;100409.41;6188692;23;20032;-91
2022/01/19 15:31:33;;;;;;;16.02;6.15;;;;;;;1.19;70.60;100442.13;6162193;23;20047;-92
2022/01/19 15:34:04;;;;;;;13.13;5.68;;;;;;;1.15;71.04;100426.00;6169344;23;20013;-90
2022/01/19 15:36:48;;;;;;;14.80;6.32;;;;;;;0.99;70.55;100412.63;6186635;23;20017;-90
2022/01/19 15:39:34;;;;;;;12.40;5.60;;;;;;;1.08;71.00;100458.34;6180264;23;20043;-89
2022/01/19 15:42:53;;;;;;;12.18;5.40;;;;;;;0.91;70.93;100449.94;6216832;23;20044;-89
2022/01/19 15:45:37;;;;;;;15.88;5.72;;;;;;;0.30;70.90;100344.72;6217023;23;20348;-89
2022/01/19 15:48:41;;;;;;;15.80;6.07;;;;;;;0.86;71.62;100420.38;6215110;23;20352;-88
2022/01/19 15:51:21;;;;;;;12.77;5.57;;;;;;;0.93;71.66;100432.44;6192149;23;20084;-88
2022/01/19 15:53:59;;;;;;;17.20;6.10;;;;;;;0.95;71.59;100441.78;6218147;23;20044;-89
2022/01/19 16:00:22;;;;;;;16.27;6.07;;;;;;;0.81;71.12;100387.50;6216329;23;20024;-88
2022/01/19 16:03:04;;;;;;;15.93;6.28;;;;;;;0.71;71.23;100362.69;6190958;23;20017;-86
2022/01/19 16:06:54;;;;;;;14.18;5.35;;;;;;;0.87;70.68;100427.97;6218335;23;20417;-89
2022/01/19 16:09:28;;;;;;;15.00;6.53;;;;;;;0.72;71.39;100387.00;6193071;23;20044;-89
2022/01/19 16:12:35;;;;;;;16.42;6.30;;;;;;;0.83;71.40;100416.06;6117668;23;20383;-89
2022/01/19 16:15:07;;;;;;;11.98;6.00;;;;;;;0.64;71.45;100403.38;6164861;23;20021;-89
2022/01/19 16:17:44;;;;;;;16.52;7.32;;;;;;;0.78;71.21;100401.53;6217585;23;20020;-88
2022/01/19 16:20:24;;;;;;;16.00;6.82;;;;;;;0.48;71.36;100361.56;6191487;23;20017;-88
2022/01/19 16:29:14;;;;;;;15.25;5.65;;;;;;;0.31;71.76;100402.50;6216903;23;20027;-89
2022/01/19 16:35:48;;;;;;;13.68;6.40;;;;;;;-0.79;71.96;100233.69;6078142;23;20107;-90
2022/01/19 16:43:23;;;;;;;12.45;5.93;;;;;;;-0.12;72.35;100373.50;6212683;23;20035;-87
2022/01/19 16:46:02;;;;;;;13.73;7.20;;;;;;;-1.13;72.31;100235.22;6230208;23;20017;-86
2022/01/19 16:48:37;;;;;;;12.52;6.22;;;;;;;-0.10;72.44;100377.78;6217848;23;20043;-91
2022/01/19 16:51:20;;;;;;;16.38;6.80;;;;;;;-0.44;72.21;100314.13;6217339;23;20071;-92
2022/01/19 16:57:15;;;;;;;20.85;6.22;;;;;;;-0.15;72.42;100361.66;6222919;22;20021;-91
2022/01/19 16:59:56;;;;;;;14.88;6.43;;;;;;;-0.41;72.40;100309.28;6190908;23;20123;-92
2022/01/19 17:02:41;;;;;;;14.77;6.20;;;;;;;-0.05;72.62;100375.53;6191221;23;20020;-92
2022/01/19 17:05:38;;;;;;;18.60;6.00;;;;;;;-0.21;72.71;100378.88;6201743;23;20038;-89
2022/01/19 17:12:02;;;;;;;14.65;5.78;;;;;;;-1.46;73.18;100185.03;6221285;22;20897;-87
2022/01/19 18:01:31;;;;;;;23.58;9.88;;;;;;;-0.96;74.92;100327.16;5901098;22;20105;-87
2022/01/19 18:04:23;;;;;;;26.40;11.25;;;;;;;-0.85;74.71;100318.56;6185912;23;20044;-90
2022/01/19 22:16:43;;;;;;;29.20;12.48;;;;;;;-2.39;77.13;100080.59;6233573;23;20087;-88
2022/01/19 22:19:49;;;;;;;24.63;10.77;;;;;;;-2.83;77.17;99995.66;6174955;23;20031;-87
2022/01/19 22:23:14;;;;;;;23.90;9.60;;;;;;;-2.16;77.42;100089.41;6233863;23;20032;-87
2022/01/19 22:50:21;;;;;;;32.75;13.07;;;;;;;-2.61;76.55;100017.72;6227438;22;20736;-87
2022/01/19 22:56:30;;;;;;;32.10;11.82;;;;;;;-2.94;76.32;100004.19;6203114;23;20460;-87
2022/01/19 22:59:10;;;;;;;27.35;11.82;;;;;;;-3.37;76.33;99952.59;6155227;23;20021;-88
2022/01/19 23:01:49;;;;;;;31.02;12.43;;;;;;;-3.65;76.51;99921.84;6203136;23;20380;-87
2022/01/19 23:04:30;;;;;;;28.83;12.95;;;;;;;-2.87;76.94;100055.31;6153676;23;20091;-86
2022/01/19 23:07:28;;;;;;;30.10;12.95;;;;;;;-2.84;76.81;100045.53;6176688;23;20025;-87
2022/01/19 23:23:47;;;;;;;28.80;11.48;;;;;;;-3.22;77.42;99902.72;6233393;22;20035;-87
2022/01/19 23:30:21;;;;;;;31.63;13.20;;;;;;;-2.99;77.76;99932.31;6036344;23;20022;-87
2022/01/19 23:33:24;;;;;;;30.13;12.73;;;;;;;-2.30;77.94;100025.28;6136878;23;20022;-87
